F/V Iroise — FGRR — position and weather

sailwx.info

Track history (hours):
 
Tides and Currents Weather Stations Pressure Air Temp Water Temp Dewpoint Dewpoint Depression Visibility Wind Speed Wind Dir Waves Ship Positions

F/V Iroise

Last reported at 2018-Apr-18 21:43 UTC. Time now 2018-Apr-25 22:15 UTC.
Position N 48°25' W 004°50'.

Length 33 m; draft 4.5 m.

Type: Fishing. MMSI: 227347000.

Date/timePositionNaut miles runAvg speedWind from/ knotsBaromVisibWave heightAir tempDewpointWater temp
2018-Apr-18 21:43N 48°25' W 004°50'6 6.6
2018-Apr-18 20:53N 48°19' W 004°47'3 8.4
2018-Apr-18 20:30N 48°16' W 004°46'4 8.8
2018-Apr-18 20:00N 48°12' W 004°45'5 9.2
2018-Apr-18 19:30N 48°09' W 004°40'7 9.6
2018-Apr-18 18:49N 48°08' W 004°31'3 9.5
2018-Apr-18 18:30N 48°08' W 004°26'3 6.5
2018-Apr-18 18:00N 48°08' W 004°21'0 0.1
2018-Apr-18 11:53N 48°07' W 004°22'4 9.4
2018-Apr-18 11:30N 48°08' W 004°27'3 6.4
2018-Apr-18 11:00N 48°08' W 004°32'3 5.1
2018-Apr-18 10:30N 48°08' W 004°36'2 4.8
2018-Apr-18 10:00N 48°08' W 004°39'3 5.1
2018-Apr-18 09:30N 48°09' W 004°43'3 6.1
2018-Apr-18 09:00N 48°12' W 004°45'4 7.1
2018-Apr-18 08:30N 48°15' W 004°45'4 7.3
2018-Apr-18 08:00N 48°19' W 004°47'10 8.6
2018-Apr-18 06:48N 48°29' W 004°51'7 7.3
2018-Apr-18 05:54N 48°34' W 004°56'8 6.5
2018-Apr-18 04:38N 48°41' W 005°03'  
2018-Apr-09 13:40N 48°12' W 004°51'2 9.7
2018-Apr-09 13:30N 48°11' W 004°49'510.0
2018-Apr-09 13:00N 48°08' W 004°43'810.0
2018-Apr-09 12:12N 48°08' W 004°31'310.1
2018-Apr-09 11:55N 48°08' W 004°26'4 9.9
2018-Apr-09 11:28N 48°07' W 004°20'1 0.2
2018-Apr-09 03:43N 48°06' W 004°20'  
Track history (hours):
 
Tides and Currents Weather Stations Pressure Air Temp Water Temp Dewpoint Dewpoint Depression Visibility Wind Speed Wind Dir Waves Ship Positions

F/V Iroise

Last reported at 2018-Apr-18 21:43 UTC. Time now 2018-Apr-25 22:15 UTC.
Position N 48°25' W 004°50'.

Length 33 m; draft 4.5 m.

Type: Fishing. MMSI: 227347000.

Date/timePositionNaut miles runAvg speedWind from/ knotsBaromVisibWave heightAir tempDewpointWater temp
2018-Apr-18 21:43N 48°25' W 004°50'6 6.6
2018-Apr-18 20:53N 48°19' W 004°47'3 8.4
2018-Apr-18 20:30N 48°16' W 004°46'4 8.8
2018-Apr-18 20:00N 48°12' W 004°45'5 9.2
2018-Apr-18 19:30N 48°09' W 004°40'7 9.6
2018-Apr-18 18:49N 48°08' W 004°31'3 9.5
2018-Apr-18 18:30N 48°08' W 004°26'3 6.5
2018-Apr-18 18:00N 48°08' W 004°21'0 0.1
2018-Apr-18 11:53N 48°07' W 004°22'4 9.4
2018-Apr-18 11:30N 48°08' W 004°27'3 6.4
2018-Apr-18 11:00N 48°08' W 004°32'3 5.1
2018-Apr-18 10:30N 48°08' W 004°36'2 4.8
2018-Apr-18 10:00N 48°08' W 004°39'3 5.1
2018-Apr-18 09:30N 48°09' W 004°43'3 6.1
2018-Apr-18 09:00N 48°12' W 004°45'4 7.1
2018-Apr-18 08:30N 48°15' W 004°45'4 7.3
2018-Apr-18 08:00N 48°19' W 004°47'10 8.6
2018-Apr-18 06:48N 48°29' W 004°51'7 7.3
2018-Apr-18 05:54N 48°34' W 004°56'8 6.5
2018-Apr-18 04:38N 48°41' W 005°03'  
2018-Apr-09 13:40N 48°12' W 004°51'2 9.7
2018-Apr-09 13:30N 48°11' W 004°49'510.0
2018-Apr-09 13:00N 48°08' W 004°43'810.0
2018-Apr-09 12:12N 48°08' W 004°31'310.1
2018-Apr-09 11:55N 48°08' W 004°26'4 9.9
2018-Apr-09 11:28N 48°07' W 004°20'1 0.2
2018-Apr-09 03:43N 48°06' W 004°20'  

Dump ship's entire track history